sensor_id;sensor_type;location;lat;lon;timestamp;temperature;humidity
40589;DHT22;26297;49.450;6.640;2023-02-28T00:02:21;10.60;73.60
40589;DHT22;26297;49.450;6.640;2023-02-28T00:05:39;10.60;74.60
40589;DHT22;26297;49.450;6.640;2023-02-28T00:08:48;10.60;74.40
40589;DHT22;26297;49.450;6.640;2023-02-28T00:11:52;10.60;74.00
40589;DHT22;26297;49.450;6.640;2023-02-28T00:14:57;10.60;74.60
40589;DHT22;26297;49.450;6.640;2023-02-28T00:18:05;10.60;74.20
40589;DHT22;26297;49.450;6.640;2023-02-28T00:21:12;10.60;73.80
40589;DHT22;26297;49.450;6.640;2023-02-28T00:24:19;10.60;74.40
40589;DHT22;26297;49.450;6.640;2023-02-28T00:27:29;10.60;75.20
40589;DHT22;26297;49.450;6.640;2023-02-28T00:30:37;10.60;74.50
40589;DHT22;26297;49.450;6.640;2023-02-28T00:33:45;10.60;74.60
40589;DHT22;26297;49.450;6.640;2023-02-28T00:36:54;10.60;75.00
40589;DHT22;26297;49.450;6.640;2023-02-28T00:40:06;10.60;74.40
40589;DHT22;26297;49.450;6.640;2023-02-28T00:43:11;10.50;74.20
40589;DHT22;26297;49.450;6.640;2023-02-28T00:46:21;10.60;74.60
40589;DHT22;26297;49.450;6.640;2023-02-28T00:52:25;10.60;73.70
40589;DHT22;26297;49.450;6.640;2023-02-28T00:55:29;10.60;74.30
40589;DHT22;26297;49.450;6.640;2023-02-28T00:58:32;10.70;74.90
40589;DHT22;26297;49.450;6.640;2023-02-28T01:01:36;10.60;74.70
40589;DHT22;26297;49.450;6.640;2023-02-28T01:04:39;10.60;74.50
40589;DHT22;26297;49.450;6.640;2023-02-28T01:07:49;10.60;74.60
40589;DHT22;26297;49.450;6.640;2023-02-28T01:18:02;10.60;74.60
40589;DHT22;26297;49.450;6.640;2023-02-28T01:21:15;10.60;74.70
40589;DHT22;26297;49.450;6.640;2023-02-28T01:24:33;10.60;73.10
40589;DHT22;26297;49.450;6.640;2023-02-28T01:28:14;10.60;73.50
40589;DHT22;26297;49.450;6.640;2023-02-28T01:31:28;10.60;74.00
40589;DHT22;26297;49.450;6.640;2023-02-28T01:35:15;10.60;74.50
40589;DHT22;26297;49.450;6.640;2023-02-28T02:52:30;10.60;73.20
40589;DHT22;26297;49.450;6.640;2023-02-28T02:55:53;10.60;73.20
40589;DHT22;26297;49.450;6.640;2023-02-28T02:59:20;10.60;74.70
40589;DHT22;26297;49.450;6.640;2023-02-28T03:02:25;10.60;74.20
40589;DHT22;26297;49.450;6.640;2023-02-28T03:05:44;10.60;75.00
40589;DHT22;26297;49.450;6.640;2023-02-28T03:09:05;10.60;74.00
40589;DHT22;26297;49.450;6.640;2023-02-28T03:12:12;10.60;73.70
40589;DHT22;26297;49.450;6.640;2023-02-28T03:15:27;10.60;74.90
40589;DHT22;26297;49.450;6.640;2023-02-28T03:22:29;10.60;73.20
40589;DHT22;26297;49.450;6.640;2023-02-28T03:25:45;10.60;75.00
40589;DHT22;26297;49.450;6.640;2023-02-28T03:29:03;10.60;73.80
40589;DHT22;26297;49.450;6.640;2023-02-28T03:32:26;10.60;74.30
40589;DHT22;26297;49.450;6.640;2023-02-28T03:35:37;10.60;74.00
40589;DHT22;26297;49.450;6.640;2023-02-28T03:38:48;10.60;74.70
40589;DHT22;26297;49.450;6.640;2023-02-28T03:42:00;10.60;75.50
40589;DHT22;26297;49.450;6.640;2023-02-28T03:45:10;10.60;74.80
40589;DHT22;26297;49.450;6.640;2023-02-28T03:48:19;10.60;74.20
40589;DHT22;26297;49.450;6.640;2023-02-28T03:51:27;10.60;75.30
40589;DHT22;26297;49.450;6.640;2023-02-28T03:54:35;10.60;74.70
40589;DHT22;26297;49.450;6.640;2023-02-28T03:58:07;10.60;75.00
40589;DHT22;26297;49.450;6.640;2023-02-28T04:01:15;10.60;74.50
40589;DHT22;26297;49.450;6.640;2023-02-28T04:04:20;10.60;74.40
40589;DHT22;26297;49.450;6.640;2023-02-28T04:07:29;10.60;74.90
40589;DHT22;26297;49.450;6.640;2023-02-28T04:10:43;10.50;74.50
40589;DHT22;26297;49.450;6.640;2023-02-28T04:13:50;10.60;74.60
40589;DHT22;26297;49.450;6.640;2023-02-28T04:16:53;10.60;74.90
40589;DHT22;26297;49.450;6.640;2023-02-28T04:20:00;10.60;75.40
40589;DHT22;26297;49.450;6.640;2023-02-28T04:23:03;10.60;75.10
40589;DHT22;26297;49.450;6.640;2023-02-28T04:26:07;10.60;75.30
40589;DHT22;26297;49.450;6.640;2023-02-28T04:29:21;10.50;74.80
40589;DHT22;26297;49.450;6.640;2023-02-28T04:32:24;10.50;74.10
40589;DHT22;26297;49.450;6.640;2023-02-28T04:35:28;10.60;74.80
40589;DHT22;26297;49.450;6.640;2023-02-28T04:38:38;10.60;74.50
40589;DHT22;26297;49.450;6.640;2023-02-28T04:41:42;10.60;75.30
40589;DHT22;26297;49.450;6.640;2023-02-28T04:44:46;10.60;75.60
40589;DHT22;26297;49.450;6.640;2023-02-28T04:47:50;10.60;74.90
40589;DHT22;26297;49.450;6.640;2023-02-28T04:50:54;10.60;74.90
40589;DHT22;26297;49.450;6.640;2023-02-28T04:54:03;10.50;74.60
40589;DHT22;26297;49.450;6.640;2023-02-28T04:57:07;10.60;75.50
40589;DHT22;26297;49.450;6.640;2023-02-28T05:00:11;10.60;74.70
40589;DHT22;26297;49.450;6.640;2023-02-28T05:03:16;10.60;75.10
40589;DHT22;26297;49.450;6.640;2023-02-28T05:06:21;10.60;74.80
40589;DHT22;26297;49.450;6.640;2023-02-28T05:09:25;10.60;75.10
40589;DHT22;26297;49.450;6.640;2023-02-28T05:12:30;10.60;74.60
40589;DHT22;26297;49.450;6.640;2023-02-28T05:15:34;10.60;76.90
40589;DHT22;26297;49.450;6.640;2023-02-28T05:18:38;10.60;75.30
40589;DHT22;26297;49.450;6.640;2023-02-28T05:21:55;10.60;75.30
40589;DHT22;26297;49.450;6.640;2023-02-28T05:24:58;10.50;73.60
40589;DHT22;26297;49.450;6.640;2023-02-28T05:28:02;10.50;75.30
40589;DHT22;26297;49.450;6.640;2023-02-28T05:31:05;10.50;75.00
40589;DHT22;26297;49.450;6.640;2023-02-28T05:34:09;10.50;75.30
40589;DHT22;26297;49.450;6.640;2023-02-28T05:37:15;10.50;75.20
40589;DHT22;26297;49.450;6.640;2023-02-28T05:40:19;10.50;75.80
40589;DHT22;26297;49.450;6.640;2023-02-28T05:43:23;10.50;75.10
40589;DHT22;26297;49.450;6.640;2023-02-28T05:46:27;10.50;75.10
40589;DHT22;26297;49.450;6.640;2023-02-28T05:49:30;10.50;75.10
40589;DHT22;26297;49.450;6.640;2023-02-28T05:52:34;10.50;75.50
40589;DHT22;26297;49.450;6.640;2023-02-28T05:55:38;10.50;75.20
40589;DHT22;26297;49.450;6.640;2023-02-28T05:58:41;10.50;75.70
40589;DHT22;26297;49.450;6.640;2023-02-28T06:01:45;10.60;75.20
40589;DHT22;26297;49.450;6.640;2023-02-28T06:05:17;10.50;75.20
40589;DHT22;26297;49.450;6.640;2023-02-28T06:08:21;10.50;74.50
40589;DHT22;26297;49.450;6.640;2023-02-28T06:11:27;10.50;75.20
40589;DHT22;26297;49.450;6.640;2023-02-28T06:14:34;10.50;74.80
40589;DHT22;26297;49.450;6.640;2023-02-28T06:17:38;10.50;75.10
40589;DHT22;26297;49.450;6.640;2023-02-28T06:20:58;10.50;74.50
40589;DHT22;26297;49.450;6.640;2023-02-28T06:24:06;10.50;75.40
40589;DHT22;26297;49.450;6.640;2023-02-28T06:27:11;10.40;74.90
40589;DHT22;26297;49.450;6.640;2023-02-28T06:30:17;10.40;75.10
40589;DHT22;26297;49.450;6.640;2023-02-28T06:33:30;10.40;76.10
40589;DHT22;26297;49.450;6.640;2023-02-28T06:36:37;10.40;75.40
40589;DHT22;26297;49.450;6.640;2023-02-28T06:39:44;10.40;76.30
40589;DHT22;26297;49.450;6.640;2023-02-28T06:42:50;10.40;75.60
40589;DHT22;26297;49.450;6.640;2023-02-28T06:45:55;10.40;76.10
40589;DHT22;26297;49.450;6.640;2023-02-28T06:49:11;10.40;75.50
40589;DHT22;26297;49.450;6.640;2023-02-28T06:52:19;10.40;75.70
40589;DHT22;26297;49.450;6.640;2023-02-28T06:55:23;10.40;75.40
40589;DHT22;26297;49.450;6.640;2023-02-28T06:58:33;10.40;75.50
40589;DHT22;26297;49.450;6.640;2023-02-28T07:01:40;10.40;75.30
40589;DHT22;26297;49.450;6.640;2023-02-28T07:04:44;10.40;75.80
40589;DHT22;26297;49.450;6.640;2023-02-28T07:07:48;10.40;75.80
40589;DHT22;26297;49.450;6.640;2023-02-28T07:10:53;10.40;76.10
40589;DHT22;26297;49.450;6.640;2023-02-28T07:13:57;10.40;75.80
40589;DHT22;26297;49.450;6.640;2023-02-28T07:17:00;10.40;76.60
40589;DHT22;26297;49.450;6.640;2023-02-28T07:20:10;10.40;75.90
40589;DHT22;26297;49.450;6.640;2023-02-28T07:23:14;10.40;75.90
40589;DHT22;26297;49.450;6.640;2023-02-28T07:26:20;10.40;75.60
40589;DHT22;26297;49.450;6.640;2023-02-28T07:29:24;10.30;74.00
40589;DHT22;26297;49.450;6.640;2023-02-28T07:32:28;10.40;76.40
40589;DHT22;26297;49.450;6.640;2023-02-28T07:35:31;10.40;78.70
40589;DHT22;26297;49.450;6.640;2023-02-28T07:38:36;10.40;75.50
40589;DHT22;26297;49.450;6.640;2023-02-28T07:41:40;10.40;75.30
40589;DHT22;26297;49.450;6.640;2023-02-28T07:44:46;10.30;75.80
40589;DHT22;26297;49.450;6.640;2023-02-28T07:47:50;10.40;75.10
40589;DHT22;26297;49.450;6.640;2023-02-28T07:50:56;10.40;76.60
40589;DHT22;26297;49.450;6.640;2023-02-28T07:54:03;10.30;76.80
40589;DHT22;26297;49.450;6.640;2023-02-28T07:57:09;10.30;77.30
40589;DHT22;26297;49.450;6.640;2023-02-28T08:00:13;10.30;79.70
40589;DHT22;26297;49.450;6.640;2023-02-28T08:03:24;10.40;82.50
40589;DHT22;26297;49.450;6.640;2023-02-28T08:06:27;10.40;79.50
40589;DHT22;26297;49.450;6.640;2023-02-28T08:09:31;10.40;81.00
40589;DHT22;26297;49.450;6.640;2023-02-28T08:12:34;10.40;79.90
40589;DHT22;26297;49.450;6.640;2023-02-28T08:33:50;10.30;77.70
40589;DHT22;26297;49.450;6.640;2023-02-28T08:36:55;10.20;77.30
40589;DHT22;26297;49.450;6.640;2023-02-28T08:39:59;10.30;77.00
40589;DHT22;26297;49.450;6.640;2023-02-28T08:43:02;10.30;76.90
40589;DHT22;26297;49.450;6.640;2023-02-28T08:46:06;10.30;75.10
40589;DHT22;26297;49.450;6.640;2023-02-28T08:57:39;10.30;77.40
40589;DHT22;26297;49.450;6.640;2023-02-28T09:05:32;10.30;74.50
40589;DHT22;26297;49.450;6.640;2023-02-28T09:08:40;10.30;76.40
40589;DHT22;26297;49.450;6.640;2023-02-28T09:11:46;10.30;74.80
40589;DHT22;26297;49.450;6.640;2023-02-28T09:14:50;10.30;76.40
40589;DHT22;26297;49.450;6.640;2023-02-28T09:17:53;10.30;77.00
40589;DHT22;26297;49.450;6.640;2023-02-28T09:20:57;10.30;75.60
40589;DHT22;26297;49.450;6.640;2023-02-28T09:24:07;10.30;76.90
40589;DHT22;26297;49.450;6.640;2023-02-28T09:27:10;10.30;76.70
40589;DHT22;26297;49.450;6.640;2023-02-28T09:30:14;10.30;75.30
40589;DHT22;26297;49.450;6.640;2023-02-28T09:33:19;10.30;75.50
40589;DHT22;26297;49.450;6.640;2023-02-28T09:36:26;10.30;77.00
40589;DHT22;26297;49.450;6.640;2023-02-28T09:39:36;10.30;78.60
40589;DHT22;26297;49.450;6.640;2023-02-28T09:43:10;10.30;77.60
40589;DHT22;26297;49.450;6.640;2023-02-28T10:30:16;10.30;76.00
40589;DHT22;26297;49.450;6.640;2023-02-28T10:33:34;10.30;76.00
40589;DHT22;26297;49.450;6.640;2023-02-28T10:36:38;10.30;78.50
40589;DHT22;26297;49.450;6.640;2023-02-28T10:39:44;10.30;77.20
40589;DHT22;26297;49.450;6.640;2023-02-28T10:47:04;10.30;76.10
40589;DHT22;26297;49.450;6.640;2023-02-28T10:59:30;10.30;77.40
40589;DHT22;26297;49.450;6.640;2023-02-28T11:02:49;10.30;76.50
40589;DHT22;26297;49.450;6.640;2023-02-28T11:05:52;10.30;77.30
40589;DHT22;26297;49.450;6.640;2023-02-28T11:09:00;10.30;75.10
40589;DHT22;26297;49.450;6.640;2023-02-28T11:12:19;10.30;75.70
40589;DHT22;26297;49.450;6.640;2023-02-28T11:15:58;10.30;76.10
40589;DHT22;26297;49.450;6.640;2023-02-28T12:01:28;10.40;80.00
40589;DHT22;26297;49.450;6.640;2023-02-28T12:05:00;10.40;80.00
40589;DHT22;26297;49.450;6.640;2023-02-28T12:19:07;10.50;79.00
40589;DHT22;26297;49.450;6.640;2023-02-28T12:22:30;10.50;81.90
40589;DHT22;26297;49.450;6.640;2023-02-28T12:29:44;10.40;82.90
40589;DHT22;26297;49.450;6.640;2023-02-28T12:33:13;10.50;81.80
40589;DHT22;26297;49.450;6.640;2023-02-28T12:36:21;10.50;84.80
40589;DHT22;26297;49.450;6.640;2023-02-28T15:12:06;10.50;79.20
40589;DHT22;26297;49.450;6.640;2023-02-28T15:16:01;10.50;74.90
40589;DHT22;26297;49.450;6.640;2023-02-28T15:33:32;10.50;80.40
40589;DHT22;26297;49.450;6.640;2023-02-28T16:28:59;10.50;78.80
40589;DHT22;26297;49.450;6.640;2023-02-28T16:32:18;10.50;80.50
40589;DHT22;26297;49.450;6.640;2023-02-28T16:36:00;10.50;79.60
40589;DHT22;26297;49.450;6.640;2023-02-28T17:01:56;10.40;79.00
40589;DHT22;26297;49.450;6.640;2023-02-28T17:28:58;10.40;80.20
40589;DHT22;26297;49.450;6.640;2023-02-28T17:32:29;10.40;80.40
40589;DHT22;26297;49.450;6.640;2023-02-28T17:47:21;10.40;80.40
40589;DHT22;26297;49.450;6.640;2023-02-28T17:53:15;10.40;80.60
40589;DHT22;26297;49.450;6.640;2023-02-28T19:33:29;10.40;79.60
40589;DHT22;26297;49.450;6.640;2023-02-28T19:36:45;10.40;77.80
40589;DHT22;26297;49.450;6.640;2023-02-28T19:40:00;10.40;79.70
40589;DHT22;26297;49.450;6.640;2023-02-28T19:43:35;10.40;78.40
40589;DHT22;26297;49.450;6.640;2023-02-28T19:46:48;10.40;77.60
40589;DHT22;26297;49.450;6.640;2023-02-28T19:50:03;10.40;78.80
40589;DHT22;26297;49.450;6.640;2023-02-28T19:53:25;10.40;78.80
40589;DHT22;26297;49.450;6.640;2023-02-28T19:56:37;10.40;79.00
40589;DHT22;26297;49.450;6.640;2023-02-28T20:00:10;10.40;78.80
40589;DHT22;26297;49.450;6.640;2023-02-28T20:23:49;10.40;78.70
40589;DHT22;26297;49.450;6.640;2023-02-28T20:27:15;10.40;77.50
40589;DHT22;26297;49.450;6.640;2023-02-28T20:35:22;10.40;76.90
40589;DHT22;26297;49.450;6.640;2023-02-28T21:10:19;10.30;78.30
40589;DHT22;26297;49.450;6.640;2023-02-28T22:53:06;10.30;77.80
40589;DHT22;26297;49.450;6.640;2023-02-28T22:56:49;10.30;76.00
40589;DHT22;26297;49.450;6.640;2023-02-28T23:00:36;10.30;76.50
40589;DHT22;26297;49.450;6.640;2023-02-28T23:03:41;10.30;77.70
40589;DHT22;26297;49.450;6.640;2023-02-28T23:06:47;10.30;77.60
40589;DHT22;26297;49.450;6.640;2023-02-28T23:10:14;10.30;77.30
40589;DHT22;26297;49.450;6.640;2023-02-28T23:13:30;10.40;77.10
40589;DHT22;26297;49.450;6.640;2023-02-28T23:20:02;10.30;76.80
40589;DHT22;26297;49.450;6.640;2023-02-28T23:23:23;10.30;77.70
40589;DHT22;26297;49.450;6.640;2023-02-28T23:26:39;10.20;77.40
40589;DHT22;26297;49.450;6.640;2023-02-28T23:29:46;10.30;77.20
40589;DHT22;26297;49.450;6.640;2023-02-28T23:32:50;10.30;77.90
40589;DHT22;26297;49.450;6.640;2023-02-28T23:35:54;10.30;77.60
40589;DHT22;26297;49.450;6.640;2023-02-28T23:39:15;10.30;77.30
40589;DHT22;26297;49.450;6.640;2023-02-28T23:42:23;10.30;77.30
40589;DHT22;26297;49.450;6.640;2023-02-28T23:45:27;10.30;78.50
40589;DHT22;26297;49.450;6.640;2023-02-28T23:48:35;10.30;78.00
40589;DHT22;26297;49.450;6.640;2023-02-28T23:51:41;10.30;77.70
40589;DHT22;26297;49.450;6.640;2023-02-28T23:54:45;10.30;77.80
40589;DHT22;26297;49.450;6.640;2023-02-28T23:57:57;10.30;77.80
